sensor_id;sensor_type;location;lat;lon;timestamp;pressure;altitude;pressure_sealevel;temperature;humidity
75555;BME280;66087;53.126;17.960;2023-04-01T00:00:59;98831.05;;;10.20;82.44
75555;BME280;66087;53.126;17.960;2023-04-01T00:03:28;98830.14;;;10.19;82.57
75555;BME280;66087;53.126;17.960;2023-04-01T00:05:56;98831.16;;;10.21;82.54
75555;BME280;66087;53.126;17.960;2023-04-01T00:08:24;98830.39;;;10.22;82.47
75555;BME280;66087;53.126;17.960;2023-04-01T00:10:53;98827.96;;;10.25;82.46
75555;BME280;66087;53.126;17.960;2023-04-01T00:13:21;98828.01;;;10.26;82.36
75555;BME280;66087;53.126;17.960;2023-04-01T00:15:48;98823.73;;;10.28;82.42
75555;BME280;66087;53.126;17.960;2023-04-01T00:18:16;98826.80;;;10.28;82.31
75555;BME280;66087;53.126;17.960;2023-04-01T00:20:45;98823.69;;;10.29;82.44
75555;BME280;66087;53.126;17.960;2023-04-01T00:23:12;98822.13;;;10.29;82.58
75555;BME280;66087;53.126;17.960;2023-04-01T00:25:39;98821.65;;;10.29;82.56
75555;BME280;66087;53.126;17.960;2023-04-01T00:28:06;98818.99;;;10.30;82.58
75555;BME280;66087;53.126;17.960;2023-04-01T00:30:33;98821.80;;;10.31;82.54
75555;BME280;66087;53.126;17.960;2023-04-01T00:33:00;98817.64;;;10.32;82.50
75555;BME280;66087;53.126;17.960;2023-04-01T00:35:26;98820.34;;;10.33;82.69
75555;BME280;66087;53.126;17.960;2023-04-01T00:37:53;98818.64;;;10.33;82.69
75555;BME280;66087;53.126;17.960;2023-04-01T00:40:27;98816.29;;;10.33;82.67
75555;BME280;66087;53.126;17.960;2023-04-01T00:42:54;98816.52;;;10.35;82.68
75555;BME280;66087;53.126;17.960;2023-04-01T00:45:33;98819.19;;;10.36;82.60
75555;BME280;66087;53.126;17.960;2023-04-01T00:48:05;98818.40;;;10.36;82.74
75555;BME280;66087;53.126;17.960;2023-04-01T00:50:35;98815.62;;;10.34;82.84
75555;BME280;66087;53.126;17.960;2023-04-01T00:53:05;98814.59;;;10.33;82.80
75555;BME280;66087;53.126;17.960;2023-04-01T00:55:35;98817.16;;;10.35;82.83
75555;BME280;66087;53.126;17.960;2023-04-01T00:58:07;98815.13;;;10.33;82.93
75555;BME280;66087;53.126;17.960;2023-04-01T01:00:36;98815.55;;;10.32;82.86
75555;BME280;66087;53.126;17.960;2023-04-01T01:03:03;98814.90;;;10.33;82.75
75555;BME280;66087;53.126;17.960;2023-04-01T01:05:38;98813.27;;;10.33;82.71
75555;BME280;66087;53.126;17.960;2023-04-01T01:08:22;98810.64;;;10.33;82.86
75555;BME280;66087;53.126;17.960;2023-04-01T01:10:56;98808.48;;;10.32;82.81
75555;BME280;66087;53.126;17.960;2023-04-01T01:13:34;98808.40;;;10.32;82.89
75555;BME280;66087;53.126;17.960;2023-04-01T01:16:06;98805.67;;;10.32;82.90
75555;BME280;66087;53.126;17.960;2023-04-01T01:18:49;98801.84;;;10.31;82.87
75555;BME280;66087;53.126;17.960;2023-04-01T01:24:29;98803.41;;;10.31;82.99
75555;BME280;66087;53.126;17.960;2023-04-01T01:27:06;98805.42;;;10.31;83.02
75555;BME280;66087;53.126;17.960;2023-04-01T01:32:37;98805.23;;;10.30;82.99
75555;BME280;66087;53.126;17.960;2023-04-01T01:35:20;98807.30;;;10.27;83.05
75555;BME280;66087;53.126;17.960;2023-04-01T01:37:52;98807.72;;;10.24;82.98
75555;BME280;66087;53.126;17.960;2023-04-01T01:40:22;98808.98;;;10.22;82.84
75555;BME280;66087;53.126;17.960;2023-04-01T01:42:55;98809.19;;;10.19;82.94
75555;BME280;66087;53.126;17.960;2023-04-01T01:45:23;98808.94;;;10.16;82.94
75555;BME280;66087;53.126;17.960;2023-04-01T01:47:54;98809.15;;;10.12;82.78
75555;BME280;66087;53.126;17.960;2023-04-01T01:50:23;98807.95;;;10.07;82.98
75555;BME280;66087;53.126;17.960;2023-04-01T01:53:00;98809.63;;;10.01;82.98
75555;BME280;66087;53.126;17.960;2023-04-01T01:55:33;98808.33;;;9.97;83.07
75555;BME280;66087;53.126;17.960;2023-04-01T01:58:06;98809.23;;;9.94;83.05
75555;BME280;66087;53.126;17.960;2023-04-01T02:00:36;98808.10;;;9.91;83.13
75555;BME280;66087;53.126;17.960;2023-04-01T02:03:03;98809.27;;;9.89;83.40
75555;BME280;66087;53.126;17.960;2023-04-01T02:05:31;98808.70;;;9.85;83.32
75555;BME280;66087;53.126;17.960;2023-04-01T02:08:11;98806.39;;;9.84;83.38
75555;BME280;66087;53.126;17.960;2023-04-01T02:10:47;98809.98;;;9.83;83.33
75555;BME280;66087;53.126;17.960;2023-04-01T02:13:25;98809.43;;;9.83;83.27
75555;BME280;66087;53.126;17.960;2023-04-01T02:15:57;98807.77;;;9.82;83.27
75555;BME280;66087;53.126;17.960;2023-04-01T02:18:25;98806.89;;;9.79;83.31
75555;BME280;66087;53.126;17.960;2023-04-01T02:20:52;98810.02;;;9.73;83.45
75555;BME280;66087;53.126;17.960;2023-04-01T02:23:19;98809.13;;;9.70;83.43
75555;BME280;66087;53.126;17.960;2023-04-01T02:25:46;98804.41;;;9.68;83.36
75555;BME280;66087;53.126;17.960;2023-04-01T02:28:14;98811.61;;;9.71;83.42
75555;BME280;66087;53.126;17.960;2023-04-01T02:30:44;98811.27;;;9.69;83.48
75555;BME280;66087;53.126;17.960;2023-04-01T02:33:11;98810.27;;;9.67;83.39
75555;BME280;66087;53.126;17.960;2023-04-01T02:35:38;98816.11;;;9.65;83.42
75555;BME280;66087;53.126;17.960;2023-04-01T02:38:07;98819.40;;;9.62;83.46
75555;BME280;66087;53.126;17.960;2023-04-01T02:40:47;98816.93;;;9.59;83.50
75555;BME280;66087;53.126;17.960;2023-04-01T02:43:14;98822.56;;;9.56;83.48
75555;BME280;66087;53.126;17.960;2023-04-01T02:45:43;98822.20;;;9.53;83.51
75555;BME280;66087;53.126;17.960;2023-04-01T02:48:10;98825.46;;;9.49;83.54
75555;BME280;66087;53.126;17.960;2023-04-01T02:50:36;98825.30;;;9.45;83.67
75555;BME280;66087;53.126;17.960;2023-04-01T02:53:03;98826.45;;;9.43;83.70
75555;BME280;66087;53.126;17.960;2023-04-01T02:55:33;98830.94;;;9.39;83.62
75555;BME280;66087;53.126;17.960;2023-04-01T02:58:01;98829.77;;;9.38;83.79
75555;BME280;66087;53.126;17.960;2023-04-01T03:00:28;98834.82;;;9.37;83.70
75555;BME280;66087;53.126;17.960;2023-04-01T03:02:55;98836.30;;;9.35;83.67
75555;BME280;66087;53.126;17.960;2023-04-01T03:05:23;98834.86;;;9.34;83.83
75555;BME280;66087;53.126;17.960;2023-04-01T03:07:50;98837.88;;;9.34;83.84
75555;BME280;66087;53.126;17.960;2023-04-01T03:10:17;98842.02;;;9.33;83.84
75555;BME280;66087;53.126;17.960;2023-04-01T03:12:44;98841.05;;;9.32;83.83
75555;BME280;66087;53.126;17.960;2023-04-01T03:15:12;98846.48;;;9.32;83.94
75555;BME280;66087;53.126;17.960;2023-04-01T03:17:41;98845.08;;;9.30;83.90
75555;BME280;66087;53.126;17.960;2023-04-01T03:20:09;98845.86;;;9.28;84.00
75555;BME280;66087;53.126;17.960;2023-04-01T03:22:37;98849.34;;;9.26;84.02
75555;BME280;66087;53.126;17.960;2023-04-01T03:25:05;98846.45;;;9.26;83.97
75555;BME280;66087;53.126;17.960;2023-04-01T03:27:34;98848.26;;;9.26;83.95
75555;BME280;66087;53.126;17.960;2023-04-01T03:30:03;98846.61;;;9.24;83.85
75555;BME280;66087;53.126;17.960;2023-04-01T03:32:32;98851.00;;;9.23;83.78
75555;BME280;66087;53.126;17.960;2023-04-01T03:34:58;98854.98;;;9.20;84.11
75555;BME280;66087;53.126;17.960;2023-04-01T03:37:26;98856.40;;;9.15;84.02
75555;BME280;66087;53.126;17.960;2023-04-01T03:39:52;98859.06;;;9.12;84.02
75555;BME280;66087;53.126;17.960;2023-04-01T03:42:19;98856.29;;;9.12;84.07
75555;BME280;66087;53.126;17.960;2023-04-01T03:44:46;98852.38;;;9.06;84.03
75555;BME280;66087;53.126;17.960;2023-04-01T03:47:12;98861.13;;;9.13;84.02
75555;BME280;66087;53.126;17.960;2023-04-01T03:49:39;98864.52;;;9.11;83.98
75555;BME280;66087;53.126;17.960;2023-04-01T03:52:09;98866.80;;;9.10;84.11
75555;BME280;66087;53.126;17.960;2023-04-01T03:54:36;98874.43;;;9.05;84.12
75555;BME280;66087;53.126;17.960;2023-04-01T03:57:03;98876.63;;;9.00;83.89
75555;BME280;66087;53.126;17.960;2023-04-01T03:59:30;98877.63;;;8.97;84.14
75555;BME280;66087;53.126;17.960;2023-04-01T04:01:57;98880.82;;;8.90;84.21
75555;BME280;66087;53.126;17.960;2023-04-01T04:04:23;98886.52;;;8.85;84.29
75555;BME280;66087;53.126;17.960;2023-04-01T04:06:50;98887.63;;;8.84;84.23
75555;BME280;66087;53.126;17.960;2023-04-01T04:09:18;98888.60;;;8.84;84.29
75555;BME280;66087;53.126;17.960;2023-04-01T04:11:44;98892.67;;;8.83;84.10
75555;BME280;66087;53.126;17.960;2023-04-01T04:14:11;98897.61;;;8.81;84.12
75555;BME280;66087;53.126;17.960;2023-04-01T04:16:38;98896.48;;;8.80;84.18
75555;BME280;66087;53.126;17.960;2023-04-01T04:19:05;98899.19;;;8.78;84.19
75555;BME280;66087;53.126;17.960;2023-04-01T04:21:32;98902.60;;;8.76;84.24
75555;BME280;66087;53.126;17.960;2023-04-01T04:24:00;98903.06;;;8.74;84.24
75555;BME280;66087;53.126;17.960;2023-04-01T04:26:27;98907.02;;;8.73;84.30
75555;BME280;66087;53.126;17.960;2023-04-01T04:28:58;98908.30;;;8.72;84.32
75555;BME280;66087;53.126;17.960;2023-04-01T04:31:26;98907.33;;;8.69;84.29
75555;BME280;66087;53.126;17.960;2023-04-01T04:33:54;98912.10;;;8.65;84.50
75555;BME280;66087;53.126;17.960;2023-04-01T04:36:21;98918.33;;;8.59;84.52
75555;BME280;66087;53.126;17.960;2023-04-01T04:38:49;98918.36;;;8.53;84.72
75555;BME280;66087;53.126;17.960;2023-04-01T04:41:17;98925.34;;;8.50;84.48
75555;BME280;66087;53.126;17.960;2023-04-01T04:43:52;98925.70;;;8.52;84.52
75555;BME280;66087;53.126;17.960;2023-04-01T04:46:20;98924.71;;;8.53;84.50
75555;BME280;66087;53.126;17.960;2023-04-01T04:48:47;98926.21;;;8.55;84.53
75555;BME280;66087;53.126;17.960;2023-04-01T04:51:16;98931.75;;;8.56;84.38
75555;BME280;66087;53.126;17.960;2023-04-01T04:53:44;98929.95;;;8.54;84.34
75555;BME280;66087;53.126;17.960;2023-04-01T04:56:12;98936.14;;;8.52;84.37
75555;BME280;66087;53.126;17.960;2023-04-01T04:58:44;98938.11;;;8.48;84.23
75555;BME280;66087;53.126;17.960;2023-04-01T05:01:16;98939.67;;;8.45;84.32
75555;BME280;66087;53.126;17.960;2023-04-01T05:03:44;98941.75;;;8.40;84.35
75555;BME280;66087;53.126;17.960;2023-04-01T05:06:13;98945.46;;;8.35;84.32
75555;BME280;66087;53.126;17.960;2023-04-01T05:08:41;98942.62;;;8.29;84.25
75555;BME280;66087;53.126;17.960;2023-04-01T05:11:13;98953.04;;;8.27;84.22
75555;BME280;66087;53.126;17.960;2023-04-01T05:13:42;98953.74;;;8.24;84.32
75555;BME280;66087;53.126;17.960;2023-04-01T05:16:10;98955.83;;;8.22;84.35
75555;BME280;66087;53.126;17.960;2023-04-01T05:18:38;98961.09;;;8.22;84.32
75555;BME280;66087;53.126;17.960;2023-04-01T05:21:07;98962.02;;;8.19;84.33
75555;BME280;66087;53.126;17.960;2023-04-01T05:23:35;98963.39;;;8.15;84.40
75555;BME280;66087;53.126;17.960;2023-04-01T05:26:04;98967.30;;;8.11;84.45
75555;BME280;66087;53.126;17.960;2023-04-01T05:28:32;98969.80;;;8.08;84.22
75555;BME280;66087;53.126;17.960;2023-04-01T05:31:01;98968.48;;;8.05;84.29
75555;BME280;66087;53.126;17.960;2023-04-01T05:33:34;98974.37;;;7.99;84.07
75555;BME280;66087;53.126;17.960;2023-04-01T05:36:11;98975.30;;;7.94;84.01
75555;BME280;66087;53.126;17.960;2023-04-01T05:38:38;98973.46;;;7.90;83.82
75555;BME280;66087;53.126;17.960;2023-04-01T05:41:06;98974.17;;;7.84;83.85
75555;BME280;66087;53.126;17.960;2023-04-01T05:43:38;98971.84;;;7.77;84.01
75555;BME280;66087;53.126;17.960;2023-04-01T05:46:23;98976.55;;;7.72;83.98
75555;BME280;66087;53.126;17.960;2023-04-01T05:48:55;98979.92;;;7.70;83.79
75555;BME280;66087;53.126;17.960;2023-04-01T05:51:23;98983.79;;;7.71;83.82
75555;BME280;66087;53.126;17.960;2023-04-01T05:53:49;98984.62;;;7.71;83.99
75555;BME280;66087;53.126;17.960;2023-04-01T05:56:16;98989.92;;;7.69;84.04
75555;BME280;66087;53.126;17.960;2023-04-01T05:58:52;98991.21;;;7.67;84.07
75555;BME280;66087;53.126;17.960;2023-04-01T06:01:19;98995.60;;;7.67;84.09
75555;BME280;66087;53.126;17.960;2023-04-01T06:03:46;98994.98;;;7.68;84.26
75555;BME280;66087;53.126;17.960;2023-04-01T06:06:15;99000.64;;;7.70;84.05
75555;BME280;66087;53.126;17.960;2023-04-01T06:08:43;99001.05;;;7.72;84.14
75555;BME280;66087;53.126;17.960;2023-04-01T06:11:22;99005.59;;;7.73;84.06
75555;BME280;66087;53.126;17.960;2023-04-01T06:20:03;99011.96;;;7.88;83.54
75555;BME280;66087;53.126;17.960;2023-04-01T06:22:46;99016.36;;;7.91;83.48
75555;BME280;66087;53.126;17.960;2023-04-01T06:25:30;99015.95;;;7.92;83.51
75555;BME280;66087;53.126;17.960;2023-04-01T06:28:22;99019.88;;;7.92;83.20
75555;BME280;66087;53.126;17.960;2023-04-01T06:31:05;99024.47;;;7.96;83.15
75555;BME280;66087;53.126;17.960;2023-04-01T06:33:52;99028.36;;;8.02;82.94
75555;BME280;66087;53.126;17.960;2023-04-01T06:36:42;99030.60;;;8.07;83.05
75555;BME280;66087;53.126;17.960;2023-04-01T06:39:27;99032.34;;;8.14;82.96
75555;BME280;66087;53.126;17.960;2023-04-01T06:42:22;99036.44;;;8.22;82.48
75555;BME280;66087;53.126;17.960;2023-04-01T06:45:07;99036.34;;;8.26;82.09
75555;BME280;66087;53.126;17.960;2023-04-01T06:54:07;99041.86;;;8.27;81.99
75555;BME280;66087;53.126;17.960;2023-04-01T06:56:48;99044.85;;;8.25;81.88
75555;BME280;66087;53.126;17.960;2023-04-01T06:59:26;99047.40;;;8.25;81.93
75555;BME280;66087;53.126;17.960;2023-04-01T07:02:13;99049.75;;;8.30;81.97
75555;BME280;66087;53.126;17.960;2023-04-01T07:04:47;99054.21;;;8.37;81.60
75555;BME280;66087;53.126;17.960;2023-04-01T07:10:11;99062.66;;;8.37;81.49
75555;BME280;66087;53.126;17.960;2023-04-01T07:13:04;99064.45;;;8.38;81.35
75555;BME280;66087;53.126;17.960;2023-04-01T07:15:54;99067.23;;;8.41;81.25
75555;BME280;66087;53.126;17.960;2023-04-01T07:18:30;99069.51;;;8.40;80.73
75555;BME280;66087;53.126;17.960;2023-04-01T07:21:00;99072.71;;;8.39;80.94
75555;BME280;66087;53.126;17.960;2023-04-01T07:23:33;99076.59;;;8.44;81.02
75555;BME280;66087;53.126;17.960;2023-04-01T07:26:21;99075.06;;;8.49;80.84
75555;BME280;66087;53.126;17.960;2023-04-01T07:28:59;99072.53;;;8.51;80.89
75555;BME280;66087;53.126;17.960;2023-04-01T07:31:56;99076.40;;;8.56;80.94
75555;BME280;66087;53.126;17.960;2023-04-01T07:34:28;99076.70;;;8.64;80.56
75555;BME280;66087;53.126;17.960;2023-04-01T07:37:09;99077.21;;;8.63;80.79
75555;BME280;66087;53.126;17.960;2023-04-01T07:39:53;99080.55;;;8.64;80.96
75555;BME280;66087;53.126;17.960;2023-04-01T07:48:38;99096.69;;;8.76;80.63
75555;BME280;66087;53.126;17.960;2023-04-01T07:51:16;99102.03;;;8.79;80.61
75555;BME280;66087;53.126;17.960;2023-04-01T07:56:50;99111.64;;;8.84;80.36
75555;BME280;66087;53.126;17.960;2023-04-01T07:59:44;99112.70;;;8.82;79.96
75555;BME280;66087;53.126;17.960;2023-04-01T08:02:41;99122.13;;;8.78;79.94
75555;BME280;66087;53.126;17.960;2023-04-01T08:05:22;99123.39;;;8.72;79.60
75555;BME280;66087;53.126;17.960;2023-04-01T08:08:07;99126.55;;;8.67;79.68
75555;BME280;66087;53.126;17.960;2023-04-01T08:10:53;99129.25;;;8.67;79.80
75555;BME280;66087;53.126;17.960;2023-04-01T08:13:45;99135.94;;;8.69;79.59
75555;BME280;66087;53.126;17.960;2023-04-01T08:19:35;99142.52;;;8.61;79.96
75555;BME280;66087;53.126;17.960;2023-04-01T08:22:15;99148.42;;;8.66;79.89
75555;BME280;66087;53.126;17.960;2023-04-01T08:24:48;99154.25;;;8.65;79.54
75555;BME280;66087;53.126;17.960;2023-04-01T08:27:35;99158.54;;;8.66;79.51
75555;BME280;66087;53.126;17.960;2023-04-01T08:30:18;99162.60;;;8.66;79.41
75555;BME280;66087;53.126;17.960;2023-04-01T08:32:51;99162.27;;;8.69;79.34
75555;BME280;66087;53.126;17.960;2023-04-01T08:35:31;99163.64;;;8.73;79.47
75555;BME280;66087;53.126;17.960;2023-04-01T08:38:04;99162.47;;;8.85;79.22
75555;BME280;66087;53.126;17.960;2023-04-01T08:43:55;99167.79;;;9.35;78.31
75555;BME280;66087;53.126;17.960;2023-04-01T08:46:40;99174.80;;;9.53;77.92
75555;BME280;66087;53.126;17.960;2023-04-01T09:04:13;99196.60;;;9.93;76.60
75555;BME280;66087;53.126;17.960;2023-04-01T09:09:55;99199.71;;;9.83;76.18
75555;BME280;66087;53.126;17.960;2023-04-01T09:12:42;99202.28;;;9.83;76.15
75555;BME280;66087;53.126;17.960;2023-04-01T09:21:30;99206.86;;;10.00;76.13
75555;BME280;66087;53.126;17.960;2023-04-01T09:24:17;99207.30;;;10.07;76.11
75555;BME280;66087;53.126;17.960;2023-04-01T09:27:10;99209.33;;;10.09;75.44
75555;BME280;66087;53.126;17.960;2023-04-01T09:32:48;99217.66;;;9.99;75.54
75555;BME280;66087;53.126;17.960;2023-04-01T09:35:39;99220.01;;;10.01;75.76
75555;BME280;66087;53.126;17.960;2023-04-01T09:38:22;99225.06;;;10.05;75.21
75555;BME280;66087;53.126;17.960;2023-04-01T09:41:14;99229.27;;;10.05;75.07
75555;BME280;66087;53.126;17.960;2023-04-01T09:44:02;99235.32;;;10.03;75.04
75555;BME280;66087;53.126;17.960;2023-04-01T09:46:45;99237.73;;;10.05;75.07
75555;BME280;66087;53.126;17.960;2023-04-01T09:52:14;99239.08;;;10.11;74.43
75555;BME280;66087;53.126;17.960;2023-04-01T09:55:04;99244.30;;;10.22;74.04
75555;BME280;66087;53.126;17.960;2023-04-01T10:03:45;99255.12;;;10.55;72.70
75555;BME280;66087;53.126;17.960;2023-04-01T10:09:32;99260.96;;;10.50;72.99
75555;BME280;66087;53.126;17.960;2023-04-01T10:12:20;99263.73;;;10.35;72.35
75555;BME280;66087;53.126;17.960;2023-04-01T10:15:18;99262.20;;;10.21;73.34
75555;BME280;66087;53.126;17.960;2023-04-01T10:21:12;99262.83;;;10.08;74.16
75555;BME280;66087;53.126;17.960;2023-04-01T10:24:01;99265.93;;;10.13;73.93
75555;BME280;66087;53.126;17.960;2023-04-01T10:29:54;99270.66;;;10.23;73.95
75555;BME280;66087;53.126;17.960;2023-04-01T10:35:45;99275.67;;;10.42;73.50
75555;BME280;66087;53.126;17.960;2023-04-01T10:41:33;99281.95;;;10.52;72.73
75555;BME280;66087;53.126;17.960;2023-04-01T10:44:41;99282.38;;;10.82;71.31
75555;BME280;66087;53.126;17.960;2023-04-01T10:50:23;99279.91;;;10.95;71.16
75555;BME280;66087;53.126;17.960;2023-04-01T10:53:23;99282.56;;;10.85;71.42
75555;BME280;66087;53.126;17.960;2023-04-01T10:56:29;99289.80;;;10.76;71.66
75555;BME280;66087;53.126;17.960;2023-04-01T11:08:38;99297.57;;;10.76;71.39
75555;BME280;66087;53.126;17.960;2023-04-01T11:11:43;99301.40;;;10.84;71.43
75555;BME280;66087;53.126;17.960;2023-04-01T11:23:11;99311.47;;;10.65;71.67
75555;BME280;66087;53.126;17.960;2023-04-01T11:25:56;99315.81;;;10.54;71.65
75555;BME280;66087;53.126;17.960;2023-04-01T11:29:01;99314.88;;;10.40;71.69
75555;BME280;66087;53.126;17.960;2023-04-01T11:34:37;99327.28;;;10.27;71.77
75555;BME280;66087;53.126;17.960;2023-04-01T11:40:20;99335.48;;;10.08;71.66
75555;BME280;66087;53.126;17.960;2023-04-01T11:43:21;99339.25;;;10.01;71.78
75555;BME280;66087;53.126;17.960;2023-04-01T11:46:21;99346.38;;;9.86;71.92
75555;BME280;66087;53.126;17.960;2023-04-01T11:49:21;99349.93;;;9.90;72.21
75555;BME280;66087;53.126;17.960;2023-04-01T11:52:05;99348.38;;;10.05;72.04
75555;BME280;66087;53.126;17.960;2023-04-01T11:54:54;99351.91;;;10.08;71.63
75555;BME280;66087;53.126;17.960;2023-04-01T12:03:21;99362.77;;;10.09;71.41
75555;BME280;66087;53.126;17.960;2023-04-01T12:05:54;99363.29;;;10.02;71.46
75555;BME280;66087;53.126;17.960;2023-04-01T12:08:51;99368.90;;;10.08;71.35
75555;BME280;66087;53.126;17.960;2023-04-01T12:11:29;99366.90;;;10.23;71.12
75555;BME280;66087;53.126;17.960;2023-04-01T12:14:13;99372.56;;;10.21;71.00
75555;BME280;66087;53.126;17.960;2023-04-01T12:17:03;99374.80;;;10.19;70.79
75555;BME280;66087;53.126;17.960;2023-04-01T12:20:13;99375.81;;;10.21;70.50
75555;BME280;66087;53.126;17.960;2023-04-01T12:23:17;99380.17;;;10.31;70.64
75555;BME280;66087;53.126;17.960;2023-04-01T12:28:52;99394.61;;;10.13;70.77
75555;BME280;66087;53.126;17.960;2023-04-01T12:31:41;99394.52;;;10.05;70.85
75555;BME280;66087;53.126;17.960;2023-04-01T12:34:25;99397.70;;;10.06;70.55
75555;BME280;66087;53.126;17.960;2023-04-01T12:40:05;99409.56;;;10.27;70.34
75555;BME280;66087;53.126;17.960;2023-04-01T12:45:40;99407.90;;;10.64;69.58
75555;BME280;66087;53.126;17.960;2023-04-01T12:48:24;99411.63;;;10.80;69.23
75555;BME280;66087;53.126;17.960;2023-04-01T12:51:20;99411.75;;;11.02;68.81
75555;BME280;66087;53.126;17.960;2023-04-01T12:57:07;99420.13;;;11.18;68.25
75555;BME280;66087;53.126;17.960;2023-04-01T13:00:04;99428.05;;;11.25;68.32
75555;BME280;66087;53.126;17.960;2023-04-01T13:05:54;99436.79;;;11.29;67.94
75555;BME280;66087;53.126;17.960;2023-04-01T13:08:38;99440.38;;;11.37;67.84
75555;BME280;66087;53.126;17.960;2023-04-01T13:11:23;99442.70;;;11.51;67.36
75555;BME280;66087;53.126;17.960;2023-04-01T13:16:57;99449.00;;;11.51;66.94
75555;BME280;66087;53.126;17.960;2023-04-01T13:19:37;99453.98;;;11.43;66.93
75555;BME280;66087;53.126;17.960;2023-04-01T13:22:17;99458.50;;;11.41;67.02
75555;BME280;66087;53.126;17.960;2023-04-01T13:27:37;99459.38;;;11.23;66.53
75555;BME280;66087;53.126;17.960;2023-04-01T13:35:48;99462.73;;;10.93;66.68
75555;BME280;66087;53.126;17.960;2023-04-01T13:44:18;99470.95;;;10.77;66.96
75555;BME280;66087;53.126;17.960;2023-04-01T13:47:06;99479.14;;;10.73;66.95
75555;BME280;66087;53.126;17.960;2023-04-01T13:49:59;99479.79;;;10.65;66.64
75555;BME280;66087;53.126;17.960;2023-04-01T13:55:34;99485.63;;;10.45;66.75
75555;BME280;66087;53.126;17.960;2023-04-01T13:58:20;99488.05;;;10.34;67.05
75555;BME280;66087;53.126;17.960;2023-04-01T14:00:59;99492.74;;;10.23;66.93
75555;BME280;66087;53.126;17.960;2023-04-01T14:03:43;99499.40;;;10.04;67.03
75555;BME280;66087;53.126;17.960;2023-04-01T14:06:31;99504.42;;;9.85;67.14
75555;BME280;66087;53.126;17.960;2023-04-01T14:09:25;99505.55;;;9.73;67.61
75555;BME280;66087;53.126;17.960;2023-04-01T14:12:06;99508.55;;;9.69;67.63
75555;BME280;66087;53.126;17.960;2023-04-01T14:14:55;99512.42;;;9.66;67.70
75555;BME280;66087;53.126;17.960;2023-04-01T14:17:41;99515.02;;;9.59;67.46
75555;BME280;66087;53.126;17.960;2023-04-01T14:20:27;99518.13;;;9.50;67.68
75555;BME280;66087;53.126;17.960;2023-04-01T14:23:16;99513.29;;;9.45;67.55
75555;BME280;66087;53.126;17.960;2023-04-01T14:29:09;99524.15;;;9.30;67.74
75555;BME280;66087;53.126;17.960;2023-04-01T14:31:52;99525.04;;;9.25;67.78
75555;BME280;66087;53.126;17.960;2023-04-01T14:34:45;99522.48;;;9.17;68.01
75555;BME280;66087;53.126;17.960;2023-04-01T14:37:31;99530.38;;;9.13;68.02
75555;BME280;66087;53.126;17.960;2023-04-01T14:40:21;99534.88;;;9.13;67.86
75555;BME280;66087;53.126;17.960;2023-04-01T14:43:01;99540.88;;;9.09;67.69
75555;BME280;66087;53.126;17.960;2023-04-01T14:45:45;99545.70;;;9.01;67.93
75555;BME280;66087;53.126;17.960;2023-04-01T14:48:28;99550.37;;;8.97;68.07
75555;BME280;66087;53.126;17.960;2023-04-01T14:51:04;99558.71;;;8.95;67.94
75555;BME280;66087;53.126;17.960;2023-04-01T14:53:38;99558.33;;;8.88;68.10
75555;BME280;66087;53.126;17.960;2023-04-01T14:56:10;99558.46;;;8.82;67.97
75555;BME280;66087;53.126;17.960;2023-04-01T14:58:44;99565.70;;;8.74;68.25
75555;BME280;66087;53.126;17.960;2023-04-01T15:01:35;99568.06;;;8.69;68.13
75555;BME280;66087;53.126;17.960;2023-04-01T15:04:26;99576.23;;;8.60;68.31
75555;BME280;66087;53.126;17.960;2023-04-01T15:07:18;99574.98;;;8.54;68.45
75555;BME280;66087;53.126;17.960;2023-04-01T15:10:00;99582.86;;;8.54;68.54
75555;BME280;66087;53.126;17.960;2023-04-01T15:12:46;99583.49;;;8.50;68.44
75555;BME280;66087;53.126;17.960;2023-04-01T15:15:46;99587.56;;;8.44;68.48
75555;BME280;66087;53.126;17.960;2023-04-01T15:23:56;99606.83;;;8.24;68.70
75555;BME280;66087;53.126;17.960;2023-04-01T15:34:59;99622.35;;;8.02;68.95
75555;BME280;66087;53.126;17.960;2023-04-01T15:37:48;99622.87;;;7.99;68.85
75555;BME280;66087;53.126;17.960;2023-04-01T15:40:24;99628.23;;;7.93;68.79
75555;BME280;66087;53.126;17.960;2023-04-01T15:43:03;99630.87;;;7.89;68.87
75555;BME280;66087;53.126;17.960;2023-04-01T15:45:46;99635.19;;;7.85;69.19
75555;BME280;66087;53.126;17.960;2023-04-01T15:51:11;99642.62;;;7.63;69.25
75555;BME280;66087;53.126;17.960;2023-04-01T15:53:51;99645.44;;;7.56;69.40
75555;BME280;66087;53.126;17.960;2023-04-01T15:56:28;99647.42;;;7.53;69.56
75555;BME280;66087;53.126;17.960;2023-04-01T15:59:11;99650.15;;;7.52;69.97
75555;BME280;66087;53.126;17.960;2023-04-01T16:01:55;99654.23;;;7.52;70.00
75555;BME280;66087;53.126;17.960;2023-04-01T16:04:47;99659.25;;;7.48;70.16
75555;BME280;66087;53.126;17.960;2023-04-01T16:07:28;99664.33;;;7.40;69.98
75555;BME280;66087;53.126;17.960;2023-04-01T16:10:09;99668.63;;;7.31;70.12
75555;BME280;66087;53.126;17.960;2023-04-01T16:13:01;99674.64;;;7.27;70.26
75555;BME280;66087;53.126;17.960;2023-04-01T16:15:39;99678.92;;;7.25;70.09
75555;BME280;66087;53.126;17.960;2023-04-01T16:18:27;99684.46;;;7.21;70.32
75555;BME280;66087;53.126;17.960;2023-04-01T16:21:14;99686.94;;;7.11;70.71
75555;BME280;66087;53.126;17.960;2023-04-01T16:23:51;99694.41;;;7.01;70.84
75555;BME280;66087;53.126;17.960;2023-04-01T16:26:37;99698.79;;;6.96;70.71
75555;BME280;66087;53.126;17.960;2023-04-01T16:35:18;99713.06;;;6.78;71.13
75555;BME280;66087;53.126;17.960;2023-04-01T16:37:54;99717.20;;;6.74;71.37
75555;BME280;66087;53.126;17.960;2023-04-01T16:43:35;99726.73;;;6.72;71.33
75555;BME280;66087;53.126;17.960;2023-04-01T16:49:24;99740.70;;;6.65;71.42
75555;BME280;66087;53.126;17.960;2023-04-01T16:51:55;99743.89;;;6.57;71.52
75555;BME280;66087;53.126;17.960;2023-04-01T16:54:34;99750.83;;;6.51;71.71
75555;BME280;66087;53.126;17.960;2023-04-01T16:57:20;99748.41;;;6.44;71.87
75555;BME280;66087;53.126;17.960;2023-04-01T17:00:02;99754.73;;;6.38;72.09